Time;durP1;ratioP1;P1;durP2;ratioP2;P2;SDS_P1;SDS_P2;PMS_P1;PMS_P2;Temp;Humidity;BMP_temperature;BMP_pressure;BME280_temperature;BME280_humidity;BME280_pressure;Samples;Min_cycle;Max_cycle;Signal;HPM_P1;HPM_P2
2023/01/14 00:00:17;;;;;;;19.58;2.90;;;7.50;99.90;;;;;;5038653;28;20487;-77
2023/01/14 00:02:43;;;;;;;12.98;3.05;;;7.50;99.90;;;;;;5031197;28;20041;-77
2023/01/14 00:05:09;;;;;;;17.73;2.58;;;7.50;99.90;;;;;;5068577;28;20037;-77
2023/01/14 00:07:35;;;;;;;12.02;2.75;;;7.60;99.90;;;;;;5052560;28;20033;-77
2023/01/14 00:10:00;;;;;;;13.30;2.33;;;7.60;99.90;;;;;;5050877;28;20413;-77
2023/01/14 00:12:26;;;;;;;17.13;2.55;;;7.60;99.90;;;;;;5050914;28;20029;-77
2023/01/14 00:14:52;;;;;;;15.55;2.28;;;7.70;99.90;;;;;;5052243;28;20045;-77
2023/01/14 00:17:18;;;;;;;19.45;3.08;;;7.80;99.90;;;;;;5052220;28;20077;-78
2023/01/14 00:19:43;;;;;;;19.33;3.55;;;7.80;99.90;;;;;;5050809;28;20052;-78
2023/01/14 00:22:09;;;;;;;19.75;2.45;;;7.70;99.90;;;;;;5034369;28;20041;-77
2023/01/14 00:24:34;;;;;;;15.00;2.85;;;7.70;99.90;;;;;;5045546;28;20052;-78
2023/01/14 00:27:00;;;;;;;11.13;2.13;;;7.70;99.90;;;;;;5034512;28;20041;-77
2023/01/14 00:29:29;;;;;;;12.88;2.65;;;7.80;99.90;;;;;;5051963;28;20052;-77
2023/01/14 00:31:56;;;;;;;13.15;1.98;;;7.70;99.90;;;;;;5035082;28;20112;-77
2023/01/14 00:34:24;;;;;;;12.20;2.35;;;7.70;99.90;;;;;;5034271;28;20045;-77
2023/01/14 00:36:50;;;;;;;15.20;2.72;;;7.70;99.90;;;;;;5050073;28;20072;-77
2023/01/14 00:39:16;;;;;;;15.75;2.88;;;7.60;99.90;;;;;;5051742;28;20080;-77
2023/01/14 00:41:41;;;;;;;13.18;2.35;;;7.70;99.90;;;;;;5050358;28;20049;-77
2023/01/14 00:44:07;;;;;;;16.33;2.38;;;7.70;99.90;;;;;;5050649;28;20037;-77
2023/01/14 00:46:35;;;;;;;15.93;3.30;;;7.70;99.90;;;;;;5051009;28;20044;-77
2023/01/14 00:49:03;;;;;;;13.85;2.20;;;7.60;99.90;;;;;;5035011;28;20166;-76
2023/01/14 00:51:29;;;;;;;11.73;2.30;;;7.60;99.90;;;;;;5051118;28;20049;-76
2023/01/14 00:53:55;;;;;;;17.05;3.28;;;7.60;99.90;;;;;;5051705;28;20041;-77
2023/01/14 00:56:22;;;;;;;13.77;2.00;;;7.60;99.90;;;;;;5051454;28;20053;-77
2023/01/14 00:58:49;;;;;;;14.23;2.47;;;7.60;99.90;;;;;;5050837;28;20120;-76
2023/01/14 01:01:15;;;;;;;20.85;2.80;;;7.60;99.90;;;;;;5051445;28;20102;-76
2023/01/14 01:03:44;;;;;;;13.98;2.22;;;7.50;99.90;;;;;;5034812;28;20057;-77
2023/01/14 01:06:11;;;;;;;13.50;2.55;;;7.60;99.90;;;;;;5050602;28;20048;-76
2023/01/14 01:08:36;;;;;;;16.73;2.55;;;7.50;99.90;;;;;;5051238;28;20543;-76
2023/01/14 01:11:02;;;;;;;13.05;2.40;;;7.50;99.90;;;;;;5050164;28;20041;-76
2023/01/14 01:13:28;;;;;;;17.40;2.65;;;7.60;99.90;;;;;;5053208;28;20045;-76
2023/01/14 01:15:59;;;;;;;13.00;2.47;;;7.50;99.90;;;;;;5054372;28;20386;-76
2023/01/14 01:18:25;;;;;;;16.77;2.53;;;7.50;99.90;;;;;;5054980;28;20051;-76
2023/01/14 01:20:50;;;;;;;13.38;2.33;;;7.40;99.90;;;;;;5055073;28;20468;-76
2023/01/14 01:23:16;;;;;;;13.90;2.92;;;7.40;99.90;;;;;;5055005;28;20040;-76
2023/01/14 01:25:42;;;;;;;14.18;2.80;;;7.40;99.90;;;;;;5053261;28;20037;-76
2023/01/14 01:28:08;;;;;;;18.85;3.05;;;7.40;99.90;;;;;;5054705;28;20079;-76
2023/01/14 01:30:34;;;;;;;15.50;2.50;;;7.30;99.90;;;;;;5054895;28;20120;-76
2023/01/14 01:33:01;;;;;;;13.60;2.28;;;7.30;99.90;;;;;;5054790;28;20033;-76
2023/01/14 01:35:26;;;;;;;12.00;2.35;;;7.30;99.90;;;;;;5052280;28;20052;-76
2023/01/14 01:37:52;;;;;;;13.88;2.70;;;7.40;99.90;;;;;;5052905;28;20047;-76
2023/01/14 01:40:18;;;;;;;12.30;2.35;;;7.30;99.90;;;;;;5054821;28;20052;-76
2023/01/14 01:42:56;;;;;;;13.02;2.30;;;7.40;99.90;;;;;;5054603;28;20132;-76
2023/01/14 01:45:42;;;;;;;16.50;2.45;;;7.40;99.90;;;;;;5053663;28;20118;-76
2023/01/14 01:48:17;;;;;;;15.75;2.58;;;7.30;99.90;;;;;;5054425;28;20041;-76
2023/01/14 01:50:46;;;;;;;13.77;2.10;;;7.30;99.90;;;;;;5071427;28;20405;-76
2023/01/14 01:53:12;;;;;;;12.25;2.42;;;7.40;99.90;;;;;;5050107;28;20383;-76
2023/01/14 01:55:41;;;;;;;15.15;2.45;;;7.40;99.90;;;;;;5017970;28;20037;-76
2023/01/14 01:58:08;;;;;;;11.52;2.17;;;7.30;99.90;;;;;;5050898;28;20041;-76
2023/01/14 02:00:34;;;;;;;11.90;2.10;;;7.40;99.90;;;;;;5049497;28;20095;-76
2023/01/14 02:03:05;;;;;;;14.25;2.55;;;7.50;99.90;;;;;;5049041;28;20053;-76
2023/01/14 02:05:31;;;;;;;13.07;2.45;;;7.50;99.90;;;;;;5035576;28;20450;-76
2023/01/14 02:07:58;;;;;;;18.05;3.22;;;7.50;99.90;;;;;;5060637;28;20040;-76
2023/01/14 02:10:49;;;;;;;12.18;2.20;;;7.50;99.90;;;;;;5040562;28;20402;-76
2023/01/14 02:13:44;;;;;;;18.23;2.58;;;7.60;99.90;;;;;;5034064;28;20076;-76
2023/01/14 02:16:51;;;;;;;11.65;2.10;;;7.50;99.90;;;;;;5053440;28;20033;-76
2023/01/14 02:19:38;;;;;;;11.95;2.15;;;7.50;99.90;;;;;;5065818;28;20047;-76
2023/01/14 02:22:43;;;;;;;11.73;2.17;;;7.50;99.90;;;;;;5068166;28;20041;-76
2023/01/14 02:25:36;;;;;;;17.00;2.25;;;7.50;99.90;;;;;;5053768;28;20052;-76
2023/01/14 02:28:26;;;;;;;12.10;2.22;;;7.50;99.90;;;;;;5052844;28;20047;-76
2023/01/14 02:30:54;;;;;;;18.67;3.08;;;7.70;99.90;;;;;;5056712;28;20041;-76
2023/01/14 02:33:53;;;;;;;18.00;3.50;;;7.60;99.90;;;;;;5045209;28;20051;-76
2023/01/14 02:36:28;;;;;;;15.52;2.08;;;7.60;99.90;;;;;;5069102;28;20044;-76
2023/01/14 02:39:02;;;;;;;14.63;2.42;;;7.60;99.90;;;;;;5036504;28;20145;-76
2023/01/14 02:44:25;;;;;;;10.90;2.00;;;7.70;99.90;;;;;;5050757;28;20053;-76
2023/01/14 02:46:57;;;;;;;15.25;2.55;;;7.70;99.90;;;;;;5052745;28;20072;-76
2023/01/14 02:49:27;;;;;;;17.65;3.30;;;7.60;99.90;;;;;;5032351;28;20037;-76
2023/01/14 02:51:56;;;;;;;16.15;2.78;;;7.80;99.90;;;;;;5048434;28;20124;-76
2023/01/14 02:54:22;;;;;;;14.77;2.15;;;7.70;99.90;;;;;;5056305;28;20410;-76
2023/01/14 02:56:49;;;;;;;18.17;2.83;;;7.60;99.90;;;;;;5049527;28;20040;-76
2023/01/14 02:59:36;;;;;;;17.27;2.53;;;7.70;99.90;;;;;;5049310;28;20045;-77
2023/01/14 03:02:56;;;;;;;13.90;2.40;;;7.60;99.90;;;;;;5050318;28;20119;-77
2023/01/14 03:05:51;;;;;;;14.68;2.25;;;7.60;99.90;;;;;;4984666;28;20414;-77
2023/01/14 03:08:26;;;;;;;18.95;2.58;;;7.50;99.90;;;;;;5034009;28;20050;-77
2023/01/14 03:11:00;;;;;;;11.02;2.15;;;7.50;99.90;;;;;;5046756;28;20033;-77
2023/01/14 03:13:25;;;;;;;14.20;2.25;;;7.50;99.90;;;;;;5047532;28;20040;-77
2023/01/14 03:16:03;;;;;;;11.95;2.17;;;7.50;99.90;;;;;;5051315;28;20564;-77
2023/01/14 03:18:44;;;;;;;14.85;2.83;;;7.50;99.90;;;;;;5052776;28;20049;-77
2023/01/14 03:21:15;;;;;;;12.13;2.28;;;7.50;99.90;;;;;;5051387;28;20079;-77
2023/01/14 03:23:49;;;;;;;11.43;2.40;;;7.50;99.90;;;;;;5034897;28;20053;-77
2023/01/14 03:26:15;;;;;;;15.88;2.75;;;7.50;99.90;;;;;;5053220;28;20123;-77
2023/01/14 03:28:47;;;;;;;11.50;1.88;;;7.40;99.90;;;;;;5035160;28;20037;-77
2023/01/14 03:31:17;;;;;;;12.05;1.95;;;7.40;99.90;;;;;;5069552;28;20032;-77
2023/01/14 03:33:52;;;;;;;10.32;1.85;;;7.40;99.90;;;;;;5067185;28;20051;-77
2023/01/14 03:36:21;;;;;;;9.98;2.15;;;7.40;99.90;;;;;;5032538;28;20041;-77
2023/01/14 03:38:57;;;;;;;13.75;2.85;;;7.30;99.90;;;;;;5038984;28;20512;-77
2023/01/14 03:44:20;;;;;;;12.50;1.88;;;7.20;99.90;;;;;;5050295;28;20120;-78
2023/01/14 03:46:46;;;;;;;10.90;2.10;;;7.20;99.90;;;;;;5050628;28;20116;-78
2023/01/14 03:49:11;;;;;;;15.50;2.00;;;7.20;99.90;;;;;;5044765;28;20120;-78
2023/01/14 03:51:52;;;;;;;12.50;2.20;;;7.20;99.90;;;;;;5041251;28;20384;-78
2023/01/14 03:54:29;;;;;;;13.35;2.17;;;7.30;99.90;;;;;;5061031;28;20045;-78
2023/01/14 03:57:33;;;;;;;10.73;2.15;;;7.30;99.90;;;;;;5043689;28;20045;-78
2023/01/14 04:00:00;;;;;;;13.95;2.13;;;7.20;99.90;;;;;;5043030;28;20378;-78
2023/01/14 04:02:28;;;;;;;15.10;2.33;;;7.20;99.90;;;;;;5044129;28;20064;-78
2023/01/14 04:04:54;;;;;;;12.65;2.10;;;7.20;99.90;;;;;;5059932;28;20056;-78
2023/01/14 04:07:23;;;;;;;14.18;3.03;;;7.20;99.90;;;;;;5049996;28;20129;-78
2023/01/14 04:09:49;;;;;;;17.25;2.13;;;7.10;99.90;;;;;;5049972;28;20080;-78
2023/01/14 04:12:14;;;;;;;11.00;1.92;;;7.10;99.90;;;;;;5049217;28;20083;-78
2023/01/14 04:17:24;;;;;;;10.05;1.70;;;7.10;99.90;;;;;;5040440;28;20460;-78
2023/01/14 04:19:50;;;;;;;14.13;1.85;;;7.10;99.90;;;;;;5060037;28;20094;-78
2023/01/14 04:22:15;;;;;;;15.45;1.85;;;7.10;99.90;;;;;;5050114;28;20052;-78
2023/01/14 04:24:41;;;;;;;16.00;2.25;;;7.10;99.90;;;;;;5050505;28;20079;-78
2023/01/14 04:27:06;;;;;;;11.52;1.98;;;7.10;99.90;;;;;;5035332;28;20401;-78
2023/01/14 04:29:32;;;;;;;12.40;2.30;;;7.10;99.90;;;;;;5051013;28;20112;-78
2023/01/14 04:31:57;;;;;;;15.95;2.25;;;7.10;99.90;;;;;;5035486;28;20444;-78
2023/01/14 04:34:23;;;;;;;14.68;2.85;;;7.00;99.90;;;;;;5048287;28;20045;-78
2023/01/14 04:36:49;;;;;;;11.82;2.00;;;7.00;99.90;;;;;;5050291;28;20041;-78
2023/01/14 04:39:14;;;;;;;12.48;2.10;;;7.00;99.90;;;;;;5049727;28;20044;-77
2023/01/14 04:44:24;;;;;;;13.80;1.70;;;7.00;99.90;;;;;;5050878;28;20398;-78
2023/01/14 04:46:49;;;;;;;11.85;2.58;;;7.00;99.90;;;;;;5052748;28;20060;-78
2023/01/14 04:49:15;;;;;;;10.75;2.22;;;7.00;99.90;;;;;;5070743;28;20481;-77
2023/01/14 04:51:41;;;;;;;8.65;1.65;;;6.90;99.90;;;;;;5070452;28;20036;-77
2023/01/14 04:54:06;;;;;;;10.05;1.60;;;6.90;99.90;;;;;;5032202;28;20069;-77
2023/01/14 04:56:32;;;;;;;11.52;2.03;;;6.90;99.90;;;;;;5051424;28;20444;-77
2023/01/14 04:59:02;;;;;;;15.82;2.75;;;6.90;99.90;;;;;;5054691;28;20045;-77
2023/01/14 05:01:28;;;;;;;8.75;2.08;;;6.80;99.90;;;;;;5052798;28;20049;-77
2023/01/14 05:03:58;;;;;;;15.57;2.28;;;6.80;99.90;;;;;;5052513;28;20528;-77
2023/01/14 05:06:27;;;;;;;12.90;2.28;;;6.80;99.90;;;;;;5038664;28;20489;-77
2023/01/14 05:08:53;;;;;;;14.13;2.53;;;6.80;99.90;;;;;;5047133;28;20037;-78
2023/01/14 05:11:18;;;;;;;9.35;2.10;;;6.90;99.90;;;;;;5057067;28;20052;-78
2023/01/14 05:13:44;;;;;;;16.08;2.72;;;6.90;99.90;;;;;;5029194;28;20049;-78
2023/01/14 05:16:10;;;;;;;15.52;2.13;;;6.90;99.90;;;;;;5049571;28;20037;-78
2023/01/14 05:18:35;;;;;;;12.27;1.98;;;6.90;99.90;;;;;;5047810;28;20504;-78
2023/01/14 05:21:01;;;;;;;14.00;2.47;;;6.90;99.90;;;;;;5053729;28;20041;-78
2023/01/14 05:23:27;;;;;;;16.58;3.15;;;6.90;99.90;;;;;;5034801;28;20041;-78
2023/01/14 05:25:52;;;;;;;12.10;2.88;;;6.80;99.90;;;;;;5052101;28;20045;-78
2023/01/14 05:28:19;;;;;;;9.23;2.10;;;6.80;99.90;;;;;;5038253;28;20037;-78
2023/01/14 05:30:46;;;;;;;12.32;2.20;;;6.90;99.90;;;;;;5053328;28;20048;-78
2023/01/14 05:33:12;;;;;;;13.18;2.13;;;6.90;99.90;;;;;;5053614;28;20505;-78
2023/01/14 05:35:37;;;;;;;11.98;2.53;;;6.90;99.90;;;;;;5036513;28;20132;-78
2023/01/14 05:38:04;;;;;;;12.45;2.25;;;6.90;99.90;;;;;;5052872;28;20124;-78
2023/01/14 05:40:31;;;;;;;12.50;2.47;;;6.90;99.90;;;;;;5037003;28;20485;-78
2023/01/14 05:45:48;;;;;;;14.18;2.80;;;6.90;99.90;;;;;;5050352;28;20485;-78
2023/01/14 05:48:19;;;;;;;16.13;2.15;;;6.80;99.90;;;;;;5063125;28;20162;-78
2023/01/14 05:50:48;;;;;;;15.30;2.70;;;6.80;99.90;;;;;;5052375;28;20029;-78
2023/01/14 05:53:14;;;;;;;14.77;2.55;;;6.80;99.90;;;;;;5049536;28;20052;-78
2023/01/14 05:55:39;;;;;;;15.00;2.50;;;6.80;99.90;;;;;;5047733;28;20049;-78
2023/01/14 05:58:06;;;;;;;15.65;2.80;;;6.80;99.90;;;;;;5052553;28;20123;-78
2023/01/14 06:06:21;;;;;;;14.07;3.05;;;6.80;99.90;;;;;;5051627;28;20398;-78
2023/01/14 06:08:47;;;;;;;18.58;3.03;;;6.80;99.90;;;;;;5070206;28;20469;-78
2023/01/14 06:11:13;;;;;;;16.63;2.90;;;6.80;99.90;;;;;;5051771;28;20134;-78
2023/01/14 06:13:39;;;;;;;17.70;3.65;;;6.80;99.90;;;;;;5050886;28;20076;-78
2023/01/14 06:16:07;;;;;;;18.60;3.92;;;6.80;99.90;;;;;;5052907;28;20045;-78
2023/01/14 06:18:42;;;;;;;14.68;3.40;;;6.80;99.90;;;;;;5051328;28;20055;-78
2023/01/14 06:21:10;;;;;;;18.05;3.67;;;6.80;99.90;;;;;;5050696;28;20045;-79
2023/01/14 06:23:36;;;;;;;15.23;3.38;;;6.80;99.90;;;;;;5047467;28;20585;-78
2023/01/14 06:26:02;;;;;;;13.02;2.60;;;6.80;99.90;;;;;;5052931;28;20118;-79
2023/01/14 06:28:31;;;;;;;15.43;3.15;;;6.80;99.90;;;;;;5051482;28;20045;-78
2023/01/14 06:30:56;;;;;;;17.38;3.67;;;6.70;99.90;;;;;;5052877;28;20033;-78
2023/01/14 06:33:22;;;;;;;16.95;3.65;;;6.80;99.90;;;;;;5069117;28;20044;-78
2023/01/14 06:35:49;;;;;;;21.73;4.25;;;6.70;99.90;;;;;;5050172;28;20076;-79
2023/01/14 06:38:15;;;;;;;16.90;4.28;;;6.70;99.90;;;;;;5051412;28;20393;-78
2023/01/14 06:40:42;;;;;;;18.10;5.47;;;6.70;99.90;;;;;;5038796;28;20053;-79
2023/01/14 06:43:08;;;;;;;18.92;4.13;;;6.70;99.90;;;;;;5034515;28;20080;-78
2023/01/14 06:45:34;;;;;;;16.67;4.15;;;6.70;99.90;;;;;;5052530;28;20114;-78
2023/01/14 06:48:01;;;;;;;18.00;4.22;;;6.70;99.90;;;;;;5036916;28;20045;-78
2023/01/14 06:50:26;;;;;;;17.08;4.20;;;6.70;99.90;;;;;;5053192;28;20119;-78
2023/01/14 06:52:52;;;;;;;21.67;4.20;;;6.60;99.90;;;;;;5053200;28;20144;-78
2023/01/14 06:55:19;;;;;;;17.88;4.00;;;6.70;99.90;;;;;;5051584;28;20041;-79
2023/01/14 06:57:45;;;;;;;14.00;3.35;;;6.70;99.90;;;;;;5053470;28;20512;-80
2023/01/14 07:00:11;;;;;;;16.80;3.92;;;6.60;99.90;;;;;;5053007;28;20049;-79
2023/01/14 07:02:37;;;;;;;18.35;4.90;;;6.60;99.90;;;;;;5035398;28;20040;-79
2023/01/14 07:05:03;;;;;;;19.73;4.25;;;6.60;99.90;;;;;;5040948;28;20491;-79
2023/01/14 07:07:29;;;;;;;17.20;3.78;;;6.70;99.90;;;;;;5033303;28;20453;-79
2023/01/14 07:09:54;;;;;;;19.60;3.90;;;6.70;99.90;;;;;;5035152;28;20033;-79
2023/01/14 07:12:20;;;;;;;17.40;3.75;;;6.70;99.90;;;;;;5069350;28;20158;-79
2023/01/14 07:14:46;;;;;;;24.60;4.00;;;6.60;99.90;;;;;;5051974;28;20393;-79
2023/01/14 07:17:11;;;;;;;18.85;3.50;;;6.70;99.90;;;;;;5051837;28;20179;-79
2023/01/14 07:19:37;;;;;;;21.38;5.00;;;6.70;99.90;;;;;;5051955;28;20048;-79
2023/01/14 07:22:02;;;;;;;24.55;4.43;;;6.70;99.90;;;;;;5051671;28;20040;-79
2023/01/14 07:24:28;;;;;;;16.98;3.75;;;6.70;99.90;;;;;;5050802;28;20056;-79
2023/01/14 07:26:53;;;;;;;20.05;3.75;;;6.70;99.90;;;;;;5069526;28;20048;-79
2023/01/14 07:29:19;;;;;;;20.27;4.55;;;6.70;99.90;;;;;;5051607;28;20075;-79
2023/01/14 07:31:45;;;;;;;21.85;4.03;;;6.70;99.90;;;;;;5032250;28;20041;-79
2023/01/14 07:34:10;;;;;;;16.33;4.05;;;6.80;99.90;;;;;;5029978;28;20046;-79
2023/01/14 07:36:36;;;;;;;19.77;4.07;;;6.80;99.90;;;;;;5032623;28;20501;-79
2023/01/14 07:39:01;;;;;;;18.98;4.53;;;6.80;99.90;;;;;;5032625;28;20049;-79
2023/01/14 07:41:27;;;;;;;19.60;3.40;;;6.80;99.90;;;;;;5051457;28;20036;-79
2023/01/14 07:43:53;;;;;;;16.08;3.75;;;6.70;99.90;;;;;;5041871;28;20045;-79
2023/01/14 07:46:19;;;;;;;16.30;3.47;;;6.80;99.90;;;;;;5052430;28;20037;-79
2023/01/14 07:48:44;;;;;;;20.33;3.85;;;6.70;99.90;;;;;;5052489;28;20080;-79
2023/01/14 07:51:12;;;;;;;15.88;3.70;;;6.80;99.90;;;;;;5052287;28;20037;-79
2023/01/14 07:53:38;;;;;;;20.10;3.90;;;6.80;99.90;;;;;;5034718;28;20041;-79
2023/01/14 07:56:06;;;;;;;18.83;4.20;;;6.80;99.90;;;;;;5052422;28;20408;-79
2023/01/14 07:58:32;;;;;;;18.88;4.00;;;6.80;99.90;;;;;;5052336;28;20083;-79
2023/01/14 08:00:58;;;;;;;20.30;4.38;;;6.90;99.90;;;;;;5051874;28;20040;-79
2023/01/14 08:03:24;;;;;;;25.65;5.75;;;6.90;99.90;;;;;;5051813;28;20045;-79
2023/01/14 08:05:50;;;;;;;20.80;4.30;;;6.90;99.90;;;;;;5052002;28;20128;-79
2023/01/14 08:08:16;;;;;;;20.65;3.85;;;6.90;99.90;;;;;;5052166;28;20045;-80
2023/01/14 08:10:42;;;;;;;17.52;3.85;;;6.90;99.90;;;;;;5051995;28;20047;-79
2023/01/14 08:13:12;;;;;;;19.58;3.58;;;6.90;99.90;;;;;;5051958;28;20116;-79
2023/01/14 08:15:38;;;;;;;20.25;4.47;;;7.00;99.90;;;;;;5052213;28;20428;-79
2023/01/14 08:18:03;;;;;;;18.67;3.65;;;6.90;99.90;;;;;;5052006;28;20115;-80
2023/01/14 08:20:29;;;;;;;24.08;3.63;;;7.00;99.90;;;;;;5036525;28;20041;-80
2023/01/14 08:22:59;;;;;;;21.73;3.50;;;7.00;99.90;;;;;;5038477;28;20094;-80
2023/01/14 08:25:26;;;;;;;18.05;3.47;;;7.00;99.90;;;;;;5056108;28;20396;-79
2023/01/14 08:27:51;;;;;;;15.93;3.60;;;7.00;99.90;;;;;;5056206;28;20102;-80
2023/01/14 08:30:18;;;;;;;15.65;4.25;;;7.00;99.90;;;;;;5055889;28;20045;-80
2023/01/14 08:32:43;;;;;;;15.52;4.63;;;6.90;99.90;;;;;;5056318;28;20397;-80
2023/01/14 08:35:09;;;;;;;22.63;3.70;;;6.90;99.90;;;;;;5055775;28;20047;-79
2023/01/14 08:37:35;;;;;;;17.63;3.08;;;6.90;99.90;;;;;;5055784;28;20047;-79
2023/01/14 08:40:00;;;;;;;17.70;3.05;;;6.90;99.90;;;;;;5055706;28;20370;-79
2023/01/14 08:42:26;;;;;;;18.60;3.28;;;6.90;99.90;;;;;;5055600;28;20044;-79
2023/01/14 08:44:52;;;;;;;16.50;2.60;;;6.80;99.90;;;;;;5038921;28;20081;-78
2023/01/14 08:47:18;;;;;;;16.88;2.78;;;6.90;99.90;;;;;;5039041;28;20090;-78
2023/01/14 08:49:43;;;;;;;11.70;3.17;;;7.00;99.90;;;;;;5055580;28;20443;-78
2023/01/14 08:52:09;;;;;;;19.00;3.95;;;6.90;99.90;;;;;;5054720;28;20028;-77
2023/01/14 08:54:35;;;;;;;19.80;4.60;;;6.90;99.90;;;;;;5037878;28;20500;-78
2023/01/14 08:57:00;;;;;;;17.23;4.05;;;6.90;99.90;;;;;;5055525;28;20032;-78
2023/01/14 08:59:26;;;;;;;18.00;3.58;;;6.90;99.90;;;;;;5038922;28;20067;-77
2023/01/14 09:01:52;;;;;;;15.40;3.40;;;6.90;99.90;;;;;;5038645;28;20128;-78
2023/01/14 09:04:18;;;;;;;15.80;3.90;;;6.90;99.90;;;;;;5054965;28;20048;-77
2023/01/14 09:17:41;;;;;;;13.60;3.38;;;6.90;99.90;;;;;;5055211;28;20127;-76
2023/01/14 09:20:17;;;;;;;20.35;2.60;;;6.90;99.90;;;;;;5038428;28;20148;-76
2023/01/14 09:22:44;;;;;;;14.10;2.88;;;6.90;99.90;;;;;;5054870;28;20045;-77
2023/01/14 09:25:10;;;;;;;15.55;3.35;;;6.90;99.90;;;;;;5054752;28;20041;-76
2023/01/14 09:27:36;;;;;;;13.48;2.83;;;6.90;99.90;;;;;;5055120;28;20039;-77
2023/01/14 09:30:01;;;;;;;15.07;2.78;;;6.90;99.90;;;;;;5054769;28;20091;-77
2023/01/14 09:32:27;;;;;;;17.08;2.83;;;6.90;99.90;;;;;;5053573;28;20059;-78
2023/01/14 09:34:53;;;;;;;12.73;2.25;;;6.90;99.90;;;;;;5054724;28;20052;-78
2023/01/14 09:37:24;;;;;;;12.48;2.33;;;7.00;99.90;;;;;;5054936;28;20442;-77
2023/01/14 09:39:50;;;;;;;9.60;2.05;;;6.90;99.90;;;;;;5054607;28;20045;-78
2023/01/14 09:42:22;;;;;;;10.85;2.10;;;7.10;99.90;;;;;;5054533;28;20048;-77
2023/01/14 09:44:51;;;;;;;15.35;2.72;;;7.10;99.90;;;;;;5053549;28;20048;-77
2023/01/14 09:47:22;;;;;;;16.15;2.63;;;7.00;99.90;;;;;;5053406;28;20041;-78
2023/01/14 09:49:48;;;;;;;11.10;2.25;;;7.00;99.90;;;;;;5054327;28;20047;-78
2023/01/14 09:52:23;;;;;;;8.85;1.73;;;7.00;99.90;;;;;;5054503;28;20041;-78
2023/01/14 09:55:04;;;;;;;11.02;2.35;;;7.10;99.90;;;;;;5054237;28;20049;-77
2023/01/14 09:57:43;;;;;;;9.98;2.00;;;7.10;99.90;;;;;;5037919;28;20401;-77
2023/01/14 10:00:30;;;;;;;11.65;2.30;;;7.10;99.90;;;;;;5054542;28;20041;-77
2023/01/14 10:03:11;;;;;;;6.95;1.38;;;7.00;99.90;;;;;;5053893;28;20128;-78
2023/01/14 10:05:39;;;;;;;7.97;1.80;;;7.20;99.90;;;;;;5054069;28;20217;-78
2023/01/14 10:08:12;;;;;;;4.20;1.27;;;7.20;99.90;;;;;;5046716;28;20528;-77
2023/01/14 10:10:41;;;;;;;4.50;1.23;;;7.10;99.90;;;;;;5028923;28;20049;-78
2023/01/14 10:13:14;;;;;;;8.32;1.70;;;7.30;99.90;;;;;;5035399;28;20044;-78
2023/01/14 10:15:50;;;;;;;6.85;1.75;;;7.20;99.90;;;;;;5052615;28;20053;-78
2023/01/14 10:18:40;;;;;;;5.45;1.20;;;7.10;99.90;;;;;;5035277;28;20578;-78
2023/01/14 10:21:17;;;;;;;5.55;1.60;;;7.10;99.90;;;;;;5060103;28;20041;-79
2023/01/14 10:23:42;;;;;;;4.85;1.17;;;7.10;99.90;;;;;;5044138;28;20053;-78
2023/01/14 10:26:16;;;;;;;6.85;1.52;;;7.20;99.90;;;;;;5067683;28;20048;-78
2023/01/14 10:28:44;;;;;;;6.15;1.27;;;7.30;99.90;;;;;;5070312;28;20432;-78
2023/01/14 10:31:16;;;;;;;8.93;1.55;;;7.20;99.90;;;;;;5052602;28;20052;-79
2023/01/14 10:33:42;;;;;;;5.82;1.50;;;7.20;99.90;;;;;;5051042;28;20493;-78
2023/01/14 10:36:16;;;;;;;3.83;1.05;;;7.30;99.90;;;;;;5045722;28;20047;-79
2023/01/14 10:38:42;;;;;;;6.85;1.20;;;7.30;99.90;;;;;;5052574;28;20041;-78
2023/01/14 10:41:09;;;;;;;4.85;1.10;;;7.20;99.90;;;;;;5052216;28;20041;-78
2023/01/14 10:43:42;;;;;;;6.05;1.40;;;7.30;99.90;;;;;;5051718;28;20036;-78
2023/01/14 10:46:15;;;;;;;;;;;7.30;99.90;;;;;;5052666;28;20083;-78
2023/01/14 10:49:02;;;;;;;4.93;1.40;;;7.30;99.90;;;;;;5035307;28;20380;-78
2023/01/14 10:51:34;;;;;;;4.78;1.30;;;7.30;99.90;;;;;;5043874;28;20486;-80
2023/01/14 10:54:08;;;;;;;;;;;7.30;99.90;;;;;;5034441;28;20055;-78
2023/01/14 10:56:34;;;;;;;7.03;1.60;;;7.30;99.90;;;;;;5041527;28;20051;-79
2023/01/14 10:59:00;;;;;;;6.80;1.60;;;7.40;99.90;;;;;;5047532;28;20059;-79
2023/01/14 11:01:26;;;;;;;3.28;1.10;;;7.50;99.90;;;;;;5051795;28;20401;-78
2023/01/14 11:03:51;;;;;;;2.92;1.10;;;7.50;99.90;;;;;;5052222;28;20060;-78
2023/01/14 11:06:17;;;;;;;4.55;1.45;;;7.50;99.90;;;;;;5049902;28;20494;-79
2023/01/14 11:08:46;;;;;;;4.45;1.40;;;7.50;99.90;;;;;;5044646;28;20032;-78
2023/01/14 11:11:16;;;;;;;3.83;2.00;;;7.50;99.90;;;;;;5047100;28;20374;-78
2023/01/14 11:13:44;;;;;;;4.25;1.20;;;7.60;99.90;;;;;;5052830;28;20037;-78
2023/01/14 11:16:21;;;;;;;6.03;1.50;;;7.60;99.90;;;;;;5049968;28;20073;-80
2023/01/14 11:19:20;;;;;;;5.30;1.45;;;7.60;99.90;;;;;;5033027;28;20041;-78
2023/01/14 11:21:51;;;;;;;2.72;1.20;;;7.70;99.90;;;;;;5051685;28;20044;-79
2023/01/14 11:24:36;;;;;;;5.13;1.33;;;7.60;99.90;;;;;;5068762;28;20099;-79
2023/01/14 11:27:06;;;;;;;4.95;1.30;;;7.60;99.90;;;;;;5056736;28;20482;-79
2023/01/14 11:29:53;;;;;;;3.40;1.20;;;7.60;99.90;;;;;;5052069;28;20045;-79
2023/01/14 11:32:29;;;;;;;3.60;1.20;;;7.70;99.90;;;;;;5051601;28;20116;-78
2023/01/14 11:35:03;;;;;;;5.20;1.58;;;7.70;99.90;;;;;;5067648;28;20053;-79
2023/01/14 11:37:44;;;;;;;4.50;1.40;;;7.70;99.90;;;;;;5052078;28;20051;-79
2023/01/14 11:41:28;;;;;;;4.17;1.50;;;7.80;99.90;;;;;;5040384;28;20048;-79
2023/01/14 11:43:13;;;;;;;5.78;1.48;;;7.80;99.90;;;;;;5038566;28;20308;-78
2023/01/14 11:45:38;;;;;;;5.75;1.52;;;7.70;99.90;;;;;;5051703;28;20045;-80
2023/01/14 11:48:26;;;;;;;2.75;1.20;;;7.80;99.90;;;;;;5050188;28;20087;-80
2023/01/14 11:51:15;;;;;;;2.83;1.23;;;7.80;99.90;;;;;;5029905;28;20433;-79
2023/01/14 11:53:44;;;;;;;4.65;1.40;;;7.80;99.90;;;;;;5049663;28;20047;-80
2023/01/14 11:56:19;;;;;;;3.97;1.35;;;7.90;99.90;;;;;;5038262;28;20040;-79
2023/01/14 11:58:45;;;;;;;5.60;1.17;;;7.90;99.90;;;;;;5048953;28;20111;-79
2023/01/14 12:01:43;;;;;;;4.97;1.00;;;7.80;99.90;;;;;;5057890;28;20037;-79
2023/01/14 12:04:09;;;;;;;4.88;1.33;;;7.90;99.90;;;;;;5043819;28;20487;-78
2023/01/14 12:06:55;;;;;;;5.30;1.45;;;7.80;99.90;;;;;;5039107;28;20052;-78
2023/01/14 12:09:27;;;;;;;2.85;1.00;;;7.90;99.90;;;;;;5037559;28;20071;-79
2023/01/14 12:12:01;;;;;;;6.10;1.50;;;7.90;99.90;;;;;;5038829;28;20047;-78
2023/01/14 12:17:30;;;;;;;3.70;1.30;;;7.90;99.90;;;;;;5046353;28;20501;-78
2023/01/14 12:20:01;;;;;;;2.58;0.95;;;7.90;99.90;;;;;;5045905;28;20080;-79
2023/01/14 12:22:43;;;;;;;2.88;0.90;;;7.90;99.90;;;;;;5058599;28;20049;-78
2023/01/14 12:25:25;;;;;;;5.00;1.20;;;8.00;99.90;;;;;;5048157;28;20041;-78
2023/01/14 12:27:50;;;;;;;4.05;1.23;;;8.00;99.90;;;;;;5051085;28;20041;-79
2023/01/14 12:30:52;;;;;;;3.03;1.00;;;8.00;99.90;;;;;;5031809;28;20409;-78
2023/01/14 12:33:40;;;;;;;2.60;1.00;;;8.00;99.90;;;;;;5041081;28;20053;-79
2023/01/14 12:36:17;;;;;;;2.97;1.00;;;8.10;99.90;;;;;;5053662;28;20102;-79
2023/01/14 12:47:20;;;;;;;2.20;0.70;;;8.10;99.90;;;;;;5036446;28;20045;-78
2023/01/14 12:49:45;;;;;;;3.65;1.10;;;8.10;99.90;;;;;;5031937;28;20086;-78
2023/01/14 12:52:22;;;;;;;2.67;1.10;;;8.20;99.90;;;;;;5034611;28;20045;-79
2023/01/14 12:54:49;;;;;;;3.60;1.13;;;8.30;99.90;;;;;;5037243;28;20053;-78
2023/01/14 12:57:21;;;;;;;3.22;0.80;;;8.30;99.90;;;;;;5036111;28;20508;-78
2023/01/14 12:59:53;;;;;;;2.78;0.93;;;8.40;99.90;;;;;;5038173;28;20513;-77
2023/01/14 13:02:30;;;;;;;2.85;0.80;;;8.40;99.90;;;;;;5023783;28;20046;-80
2023/01/14 13:05:09;;;;;;;2.08;0.77;;;8.40;99.90;;;;;;5044893;28;20056;-80
2023/01/14 13:08:00;;;;;;;2.53;0.80;;;8.50;99.90;;;;;;5066227;28;20481;-80
2023/01/14 13:10:39;;;;;;;2.05;0.80;;;8.60;99.90;;;;;;5048271;28;20045;-80
2023/01/14 13:13:19;;;;;;;1.52;0.60;;;8.50;99.90;;;;;;5044405;28;20188;-81
2023/01/14 13:15:45;;;;;;;2.03;0.73;;;8.60;99.90;;;;;;5038288;28;20052;-80
2023/01/14 13:18:35;;;;;;;1.13;0.40;;;8.60;99.90;;;;;;5054406;28;20102;-80
2023/01/14 13:21:03;;;;;;;1.17;0.60;;;8.70;99.90;;;;;;5051489;28;20158;-81
2023/01/14 13:23:44;;;;;;;1.67;0.60;;;8.70;99.90;;;;;;5043551;28;20049;-82
2023/01/14 13:26:20;;;;;;;1.60;0.55;;;8.80;99.90;;;;;;5034625;28;20054;-81
2023/01/14 13:29:16;;;;;;;1.02;0.38;;;8.80;99.90;;;;;;5049988;28;20056;-81
2023/01/14 13:31:43;;;;;;;0.90;0.50;;;8.90;99.90;;;;;;5052912;28;20051;-80
2023/01/14 13:34:21;;;;;;;2.63;0.52;;;8.90;99.90;;;;;;5036564;28;20037;-82
2023/01/14 13:37:08;;;;;;;1.17;0.57;;;8.90;99.90;;;;;;5054447;28;20102;-81
2023/01/14 13:39:34;;;;;;;3.20;0.60;;;9.00;99.90;;;;;;5058846;28;20299;-82
2023/01/14 13:42:13;;;;;;;2.08;0.88;;;9.00;99.90;;;;;;5047718;28;20037;-81
2023/01/14 13:44:45;;;;;;;3.90;0.90;;;9.10;99.90;;;;;;5070929;28;20052;-82
2023/01/14 13:47:34;;;;;;;1.08;0.60;;;9.10;99.90;;;;;;5068041;28;20044;-82
2023/01/14 13:50:02;;;;;;;0.52;0.52;;;9.20;99.90;;;;;;5019040;28;20065;-81